sensor_id;sensor_type;location;lat;lon;timestamp;P1;durP1;ratioP1;P2;durP2;ratioP2
53881;SDS011;39794;55.782;37.452;2022-09-20T00:00:05;1.10;;;1.00;;
53881;SDS011;39794;55.782;37.452;2022-09-20T00:02:39;3.28;;;0.80;;
53881;SDS011;39794;55.782;37.452;2022-09-20T00:05:10;0.98;;;0.60;;
53881;SDS011;39794;55.782;37.452;2022-09-20T00:07:38;2.00;;;0.80;;
53881;SDS011;39794;55.782;37.452;2022-09-20T00:10:10;2.53;;;0.73;;
53881;SDS011;39794;55.782;37.452;2022-09-20T00:12:43;0.93;;;0.82;;
53881;SDS011;39794;55.782;37.452;2022-09-20T00:15:13;1.35;;;0.75;;
53881;SDS011;39794;55.782;37.452;2022-09-20T00:17:49;1.67;;;0.82;;
53881;SDS011;39794;55.782;37.452;2022-09-20T00:20:20;2.90;;;0.75;;
53881;SDS011;39794;55.782;37.452;2022-09-20T00:22:50;3.38;;;0.80;;
53881;SDS011;39794;55.782;37.452;2022-09-20T00:25:22;1.88;;;0.82;;
53881;SDS011;39794;55.782;37.452;2022-09-20T00:27:53;1.52;;;0.60;;
53881;SDS011;39794;55.782;37.452;2022-09-20T00:30:32;0.70;;;0.70;;
53881;SDS011;39794;55.782;37.452;2022-09-20T00:33:07;2.42;;;0.80;;
53881;SDS011;39794;55.782;37.452;2022-09-20T00:35:35;2.60;;;0.70;;
53881;SDS011;39794;55.782;37.452;2022-09-20T00:38:07;2.97;;;0.70;;
53881;SDS011;39794;55.782;37.452;2022-09-20T00:40:36;2.67;;;0.95;;
53881;SDS011;39794;55.782;37.452;2022-09-20T00:43:05;2.15;;;0.80;;
53881;SDS011;39794;55.782;37.452;2022-09-20T00:45:36;1.73;;;0.70;;
53881;SDS011;39794;55.782;37.452;2022-09-20T00:48:14;1.08;;;0.73;;
53881;SDS011;39794;55.782;37.452;2022-09-20T00:50:52;1.75;;;0.95;;
53881;SDS011;39794;55.782;37.452;2022-09-20T00:53:24;1.52;;;0.80;;
53881;SDS011;39794;55.782;37.452;2022-09-20T00:56:03;1.45;;;0.60;;
53881;SDS011;39794;55.782;37.452;2022-09-20T00:58:35;0.75;;;0.75;;
53881;SDS011;39794;55.782;37.452;2022-09-20T01:01:12;3.53;;;0.90;;
53881;SDS011;39794;55.782;37.452;2022-09-20T01:03:44;1.38;;;0.63;;
53881;SDS011;39794;55.782;37.452;2022-09-20T01:06:14;2.35;;;0.60;;
53881;SDS011;39794;55.782;37.452;2022-09-20T01:08:45;0.90;;;0.65;;
53881;SDS011;39794;55.782;37.452;2022-09-20T01:11:17;0.98;;;0.70;;
53881;SDS011;39794;55.782;37.452;2022-09-20T01:13:48;3.55;;;0.80;;
53881;SDS011;39794;55.782;37.452;2022-09-20T01:16:24;0.80;;;0.80;;
53881;SDS011;39794;55.782;37.452;2022-09-20T01:18:59;0.85;;;0.73;;
53881;SDS011;39794;55.782;37.452;2022-09-20T01:21:32;1.08;;;0.80;;
53881;SDS011;39794;55.782;37.452;2022-09-20T01:24:03;1.80;;;0.75;;
53881;SDS011;39794;55.782;37.452;2022-09-20T01:26:43;3.63;;;0.75;;
53881;SDS011;39794;55.782;37.452;2022-09-20T01:29:38;0.80;;;0.80;;
53881;SDS011;39794;55.782;37.452;2022-09-20T01:32:18;1.50;;;0.70;;
53881;SDS011;39794;55.782;37.452;2022-09-20T01:34:51;1.00;;;0.68;;
53881;SDS011;39794;55.782;37.452;2022-09-20T01:37:26;1.40;;;0.82;;
53881;SDS011;39794;55.782;37.452;2022-09-20T01:40:00;0.90;;;0.90;;
53881;SDS011;39794;55.782;37.452;2022-09-20T01:42:37;2.47;;;0.88;;
53881;SDS011;39794;55.782;37.452;2022-09-20T01:45:13;0.68;;;0.68;;
53881;SDS011;39794;55.782;37.452;2022-09-20T01:47:48;0.95;;;0.85;;
53881;SDS011;39794;55.782;37.452;2022-09-20T01:50:28;0.70;;;0.70;;
53881;SDS011;39794;55.782;37.452;2022-09-20T01:53:22;1.00;;;0.80;;
53881;SDS011;39794;55.782;37.452;2022-09-20T01:56:24;1.00;;;0.90;;
53881;SDS011;39794;55.782;37.452;2022-09-20T01:59:34;1.10;;;0.90;;
53881;SDS011;39794;55.782;37.452;2022-09-20T02:02:26;0.90;;;0.85;;
53881;SDS011;39794;55.782;37.452;2022-09-20T02:08:26;1.08;;;0.80;;
53881;SDS011;39794;55.782;37.452;2022-09-20T02:13:42;1.48;;;0.70;;
53881;SDS011;39794;55.782;37.452;2022-09-20T02:16:41;0.85;;;0.70;;
53881;SDS011;39794;55.782;37.452;2022-09-20T02:22:09;2.33;;;0.85;;
53881;SDS011;39794;55.782;37.452;2022-09-20T02:24:49;0.73;;;0.73;;
53881;SDS011;39794;55.782;37.452;2022-09-20T02:27:26;0.75;;;0.73;;
53881;SDS011;39794;55.782;37.452;2022-09-20T02:30:08;1.38;;;1.05;;
53881;SDS011;39794;55.782;37.452;2022-09-20T02:32:57;1.15;;;1.02;;
53881;SDS011;39794;55.782;37.452;2022-09-20T02:35:45;0.70;;;0.63;;
53881;SDS011;39794;55.782;37.452;2022-09-20T02:38:25;0.98;;;0.90;;
53881;SDS011;39794;55.782;37.452;2022-09-20T02:41:13;1.65;;;0.90;;
53881;SDS011;39794;55.782;37.452;2022-09-20T02:44:05;1.70;;;1.30;;
53881;SDS011;39794;55.782;37.452;2022-09-20T02:46:40;4.40;;;0.93;;
53881;SDS011;39794;55.782;37.452;2022-09-20T02:49:16;0.70;;;0.70;;
53881;SDS011;39794;55.782;37.452;2022-09-20T02:51:52;2.65;;;1.25;;
53881;SDS011;39794;55.782;37.452;2022-09-20T02:54:29;2.72;;;0.75;;
53881;SDS011;39794;55.782;37.452;2022-09-20T02:57:04;2.15;;;0.98;;
53881;SDS011;39794;55.782;37.452;2022-09-20T02:59:43;0.80;;;0.80;;
53881;SDS011;39794;55.782;37.452;2022-09-20T03:02:19;0.98;;;0.80;;
53881;SDS011;39794;55.782;37.452;2022-09-20T03:05:00;1.85;;;0.85;;
53881;SDS011;39794;55.782;37.452;2022-09-20T03:07:40;1.13;;;0.90;;
53881;SDS011;39794;55.782;37.452;2022-09-20T03:10:17;0.88;;;0.80;;
53881;SDS011;39794;55.782;37.452;2022-09-20T03:12:56;1.52;;;0.70;;
53881;SDS011;39794;55.782;37.452;2022-09-20T03:15:35;3.28;;;0.75;;
53881;SDS011;39794;55.782;37.452;2022-09-20T03:18:13;1.83;;;0.90;;
53881;SDS011;39794;55.782;37.452;2022-09-20T03:20:48;2.63;;;0.90;;
53881;SDS011;39794;55.782;37.452;2022-09-20T03:23:34;0.90;;;0.70;;
53881;SDS011;39794;55.782;37.452;2022-09-20T03:26:14;1.20;;;0.80;;
53881;SDS011;39794;55.782;37.452;2022-09-20T03:28:56;1.45;;;1.10;;
53881;SDS011;39794;55.782;37.452;2022-09-20T03:31:45;1.60;;;0.90;;
53881;SDS011;39794;55.782;37.452;2022-09-20T03:34:29;1.30;;;0.90;;
53881;SDS011;39794;55.782;37.452;2022-09-20T03:37:12;0.88;;;0.88;;
53881;SDS011;39794;55.782;37.452;2022-09-20T03:40:04;2.50;;;0.77;;
53881;SDS011;39794;55.782;37.452;2022-09-20T03:42:59;1.30;;;0.90;;
53881;SDS011;39794;55.782;37.452;2022-09-20T03:45:50;1.27;;;0.80;;
53881;SDS011;39794;55.782;37.452;2022-09-20T03:51:59;2.60;;;0.98;;
53881;SDS011;39794;55.782;37.452;2022-09-20T03:54:37;2.10;;;1.20;;
53881;SDS011;39794;55.782;37.452;2022-09-20T03:57:20;1.10;;;0.95;;
53881;SDS011;39794;55.782;37.452;2022-09-20T04:06:21;1.38;;;0.90;;
53881;SDS011;39794;55.782;37.452;2022-09-20T04:09:24;1.25;;;1.00;;
53881;SDS011;39794;55.782;37.452;2022-09-20T04:12:00;3.47;;;1.00;;
53881;SDS011;39794;55.782;37.452;2022-09-20T04:14:41;1.15;;;0.90;;
53881;SDS011;39794;55.782;37.452;2022-09-20T04:17:21;2.30;;;1.17;;
53881;SDS011;39794;55.782;37.452;2022-09-20T04:19:57;1.48;;;0.90;;
53881;SDS011;39794;55.782;37.452;2022-09-20T04:22:32;1.92;;;1.10;;
53881;SDS011;39794;55.782;37.452;2022-09-20T04:25:03;2.75;;;1.10;;
53881;SDS011;39794;55.782;37.452;2022-09-20T04:27:40;1.98;;;1.40;;
53881;SDS011;39794;55.782;37.452;2022-09-20T04:30:26;1.30;;;0.90;;
53881;SDS011;39794;55.782;37.452;2022-09-20T04:32:58;1.42;;;1.10;;
53881;SDS011;39794;55.782;37.452;2022-09-20T04:35:37;1.17;;;1.05;;
53881;SDS011;39794;55.782;37.452;2022-09-20T04:38:28;1.58;;;1.08;;
53881;SDS011;39794;55.782;37.452;2022-09-20T04:46:59;4.23;;;1.20;;
53881;SDS011;39794;55.782;37.452;2022-09-20T04:53:04;1.20;;;1.10;;
53881;SDS011;39794;55.782;37.452;2022-09-20T04:56:05;1.95;;;1.35;;
53881;SDS011;39794;55.782;37.452;2022-09-20T04:58:48;1.25;;;1.15;;
53881;SDS011;39794;55.782;37.452;2022-09-20T05:01:53;2.67;;;1.10;;
53881;SDS011;39794;55.782;37.452;2022-09-20T05:05:00;3.15;;;1.30;;
53881;SDS011;39794;55.782;37.452;2022-09-20T05:14:07;3.17;;;1.30;;
53881;SDS011;39794;55.782;37.452;2022-09-20T05:17:10;2.15;;;1.25;;
53881;SDS011;39794;55.782;37.452;2022-09-20T05:19:48;1.10;;;1.00;;
53881;SDS011;39794;55.782;37.452;2022-09-20T05:22:41;1.67;;;1.05;;
53881;SDS011;39794;55.782;37.452;2022-09-20T05:28:18;2.65;;;1.30;;
53881;SDS011;39794;55.782;37.452;2022-09-20T05:30:54;1.30;;;1.20;;
53881;SDS011;39794;55.782;37.452;2022-09-20T05:33:32;0.98;;;0.98;;
53881;SDS011;39794;55.782;37.452;2022-09-20T05:36:09;3.35;;;1.40;;
53881;SDS011;39794;55.782;37.452;2022-09-20T05:38:46;2.10;;;1.30;;
53881;SDS011;39794;55.782;37.452;2022-09-20T05:41:26;1.60;;;1.20;;
53881;SDS011;39794;55.782;37.452;2022-09-20T05:44:02;1.65;;;1.27;;
53881;SDS011;39794;55.782;37.452;2022-09-20T05:46:44;1.70;;;1.35;;
53881;SDS011;39794;55.782;37.452;2022-09-20T05:49:37;1.30;;;1.20;;
53881;SDS011;39794;55.782;37.452;2022-09-20T06:01:24;1.83;;;1.00;;
53881;SDS011;39794;55.782;37.452;2022-09-20T06:04:11;0.82;;;0.80;;
53881;SDS011;39794;55.782;37.452;2022-09-20T06:07:11;6.10;;;1.33;;
53881;SDS011;39794;55.782;37.452;2022-09-20T06:10:10;4.45;;;1.63;;
53881;SDS011;39794;55.782;37.452;2022-09-20T06:12:48;6.45;;;2.00;;
53881;SDS011;39794;55.782;37.452;2022-09-20T06:15:40;1.95;;;1.27;;
53881;SDS011;39794;55.782;37.452;2022-09-20T06:18:17;4.22;;;2.00;;
53881;SDS011;39794;55.782;37.452;2022-09-20T06:20:55;2.75;;;1.80;;
53881;SDS011;39794;55.782;37.452;2022-09-20T06:23:32;4.65;;;2.03;;
53881;SDS011;39794;55.782;37.452;2022-09-20T06:26:02;3.35;;;1.45;;
53881;SDS011;39794;55.782;37.452;2022-09-20T06:28:37;2.45;;;1.40;;
53881;SDS011;39794;55.782;37.452;2022-09-20T06:33:50;1.98;;;1.48;;
53881;SDS011;39794;55.782;37.452;2022-09-20T06:39:17;1.63;;;1.10;;
53881;SDS011;39794;55.782;37.452;2022-09-20T06:42:28;1.83;;;1.00;;
53881;SDS011;39794;55.782;37.452;2022-09-20T06:45:01;3.13;;;1.23;;
53881;SDS011;39794;55.782;37.452;2022-09-20T06:47:33;2.88;;;0.90;;
53881;SDS011;39794;55.782;37.452;2022-09-20T06:50:05;1.70;;;1.20;;
53881;SDS011;39794;55.782;37.452;2022-09-20T06:52:33;1.45;;;1.08;;
53881;SDS011;39794;55.782;37.452;2022-09-20T06:55:10;3.90;;;1.07;;
53881;SDS011;39794;55.782;37.452;2022-09-20T06:57:54;1.85;;;0.90;;
53881;SDS011;39794;55.782;37.452;2022-09-20T07:00:26;1.52;;;1.00;;
53881;SDS011;39794;55.782;37.452;2022-09-20T07:02:54;3.63;;;1.00;;
53881;SDS011;39794;55.782;37.452;2022-09-20T07:05:28;3.63;;;0.87;;
53881;SDS011;39794;55.782;37.452;2022-09-20T07:07:57;1.77;;;1.00;;
53881;SDS011;39794;55.782;37.452;2022-09-20T07:10:35;2.45;;;1.10;;
53881;SDS011;39794;55.782;37.452;2022-09-20T07:13:05;2.70;;;1.42;;
53881;SDS011;39794;55.782;37.452;2022-09-20T07:15:45;1.20;;;1.10;;
53881;SDS011;39794;55.782;37.452;2022-09-20T07:18:20;2.42;;;1.10;;
53881;SDS011;39794;55.782;37.452;2022-09-20T07:20:51;1.92;;;1.05;;
53881;SDS011;39794;55.782;37.452;2022-09-20T07:23:27;1.77;;;1.23;;
53881;SDS011;39794;55.782;37.452;2022-09-20T07:26:01;2.35;;;1.15;;
53881;SDS011;39794;55.782;37.452;2022-09-20T07:28:30;1.90;;;1.40;;
53881;SDS011;39794;55.782;37.452;2022-09-20T07:31:13;2.97;;;1.63;;
53881;SDS011;39794;55.782;37.452;2022-09-20T07:33:45;4.25;;;2.08;;
53881;SDS011;39794;55.782;37.452;2022-09-20T07:36:18;4.18;;;2.42;;
53881;SDS011;39794;55.782;37.452;2022-09-20T07:38:49;2.58;;;1.00;;
53881;SDS011;39794;55.782;37.452;2022-09-20T07:41:23;6.22;;;1.67;;
53881;SDS011;39794;55.782;37.452;2022-09-20T07:43:58;2.42;;;1.17;;
53881;SDS011;39794;55.782;37.452;2022-09-20T07:46:49;2.60;;;1.50;;
53881;SDS011;39794;55.782;37.452;2022-09-20T07:49:19;1.25;;;0.90;;
53881;SDS011;39794;55.782;37.452;2022-09-20T07:51:52;1.07;;;0.93;;
53881;SDS011;39794;55.782;37.452;2022-09-20T07:54:23;2.45;;;0.90;;
53881;SDS011;39794;55.782;37.452;2022-09-20T07:56:54;1.02;;;0.85;;
53881;SDS011;39794;55.782;37.452;2022-09-20T07:59:25;1.23;;;0.93;;
53881;SDS011;39794;55.782;37.452;2022-09-20T08:01:53;2.78;;;1.02;;
53881;SDS011;39794;55.782;37.452;2022-09-20T08:04:26;0.73;;;0.73;;
53881;SDS011;39794;55.782;37.452;2022-09-20T08:06:55;4.55;;;1.00;;
53881;SDS011;39794;55.782;37.452;2022-09-20T08:09:32;5.13;;;1.08;;
53881;SDS011;39794;55.782;37.452;2022-09-20T08:12:04;1.60;;;1.00;;
53881;SDS011;39794;55.782;37.452;2022-09-20T08:14:54;1.65;;;0.90;;
53881;SDS011;39794;55.782;37.452;2022-09-20T08:17:23;2.50;;;1.02;;
53881;SDS011;39794;55.782;37.452;2022-09-20T08:19:52;1.67;;;0.80;;
53881;SDS011;39794;55.782;37.452;2022-09-20T08:22:24;1.30;;;0.68;;
53881;SDS011;39794;55.782;37.452;2022-09-20T08:24:57;2.95;;;1.10;;
53881;SDS011;39794;55.782;37.452;2022-09-20T08:27:33;1.88;;;1.20;;
53881;SDS011;39794;55.782;37.452;2022-09-20T08:30:05;2.72;;;1.38;;
53881;SDS011;39794;55.782;37.452;2022-09-20T08:32:37;2.67;;;1.25;;
53881;SDS011;39794;55.782;37.452;2022-09-20T08:35:11;3.25;;;1.30;;
53881;SDS011;39794;55.782;37.452;2022-09-20T08:37:40;3.22;;;0.90;;
53881;SDS011;39794;55.782;37.452;2022-09-20T08:40:13;1.50;;;1.10;;
53881;SDS011;39794;55.782;37.452;2022-09-20T08:43:05;1.48;;;1.38;;
53881;SDS011;39794;55.782;37.452;2022-09-20T08:45:38;2.72;;;1.20;;
53881;SDS011;39794;55.782;37.452;2022-09-20T08:48:14;1.48;;;1.05;;
53881;SDS011;39794;55.782;37.452;2022-09-20T08:50:50;2.63;;;0.80;;
53881;SDS011;39794;55.782;37.452;2022-09-20T08:53:20;1.00;;;0.77;;
53881;SDS011;39794;55.782;37.452;2022-09-20T08:55:54;1.48;;;0.80;;
53881;SDS011;39794;55.782;37.452;2022-09-20T08:58:29;1.98;;;0.80;;
53881;SDS011;39794;55.782;37.452;2022-09-20T09:00:58;1.13;;;0.90;;
53881;SDS011;39794;55.782;37.452;2022-09-20T09:03:31;3.35;;;0.90;;
53881;SDS011;39794;55.782;37.452;2022-09-20T09:06:04;0.98;;;0.68;;
53881;SDS011;39794;55.782;37.452;2022-09-20T09:08:44;2.25;;;0.93;;
53881;SDS011;39794;55.782;37.452;2022-09-20T09:11:18;3.00;;;0.70;;
53881;SDS011;39794;55.782;37.452;2022-09-20T09:13:51;1.15;;;0.82;;
53881;SDS011;39794;55.782;37.452;2022-09-20T09:16:27;0.90;;;0.60;;
53881;SDS011;39794;55.782;37.452;2022-09-20T09:22:04;2.22;;;0.95;;
53881;SDS011;39794;55.782;37.452;2022-09-20T09:24:33;1.45;;;1.00;;
53881;SDS011;39794;55.782;37.452;2022-09-20T09:27:14;1.48;;;1.05;;
53881;SDS011;39794;55.782;37.452;2022-09-20T09:29:53;1.17;;;0.90;;
53881;SDS011;39794;55.782;37.452;2022-09-20T09:32:24;1.92;;;1.08;;
53881;SDS011;39794;55.782;37.452;2022-09-20T09:35:19;2.15;;;0.80;;
53881;SDS011;39794;55.782;37.452;2022-09-20T09:37:56;2.65;;;1.10;;
53881;SDS011;39794;55.782;37.452;2022-09-20T09:40:31;1.08;;;0.80;;
53881;SDS011;39794;55.782;37.452;2022-09-20T09:43:02;2.53;;;1.10;;
53881;SDS011;39794;55.782;37.452;2022-09-20T09:45:39;1.23;;;0.90;;
53881;SDS011;39794;55.782;37.452;2022-09-20T09:48:16;3.80;;;0.90;;
53881;SDS011;39794;55.782;37.452;2022-09-20T09:50:46;5.97;;;0.82;;
53881;SDS011;39794;55.782;37.452;2022-09-20T09:53:21;1.05;;;0.70;;
53881;SDS011;39794;55.782;37.452;2022-09-20T09:55:55;3.22;;;0.90;;
53881;SDS011;39794;55.782;37.452;2022-09-20T09:58:49;3.45;;;0.88;;
53881;SDS011;39794;55.782;37.452;2022-09-20T10:01:37;1.10;;;1.00;;
53881;SDS011;39794;55.782;37.452;2022-09-20T10:04:16;8.13;;;1.00;;
53881;SDS011;39794;55.782;37.452;2022-09-20T10:06:52;2.50;;;1.10;;
53881;SDS011;39794;55.782;37.452;2022-09-20T10:09:31;2.10;;;1.17;;
53881;SDS011;39794;55.782;37.452;2022-09-20T10:15:02;3.13;;;1.30;;
53881;SDS011;39794;55.782;37.452;2022-09-20T10:17:46;4.55;;;1.45;;
53881;SDS011;39794;55.782;37.452;2022-09-20T10:20:31;2.88;;;1.25;;
53881;SDS011;39794;55.782;37.452;2022-09-20T10:23:15;1.58;;;1.23;;
53881;SDS011;39794;55.782;37.452;2022-09-20T10:26:37;1.77;;;1.00;;
53881;SDS011;39794;55.782;37.452;2022-09-20T10:29:28;1.50;;;0.90;;
53881;SDS011;39794;55.782;37.452;2022-09-20T10:32:08;0.93;;;0.80;;
53881;SDS011;39794;55.782;37.452;2022-09-20T10:34:51;1.35;;;0.65;;
53881;SDS011;39794;55.782;37.452;2022-09-20T10:37:37;2.17;;;1.13;;
53881;SDS011;39794;55.782;37.452;2022-09-20T10:40:19;9.63;;;1.00;;
53881;SDS011;39794;55.782;37.452;2022-09-20T10:43:26;2.08;;;0.95;;
53881;SDS011;39794;55.782;37.452;2022-09-20T10:46:10;1.10;;;0.90;;
53881;SDS011;39794;55.782;37.452;2022-09-20T10:49:03;1.45;;;0.90;;
53881;SDS011;39794;55.782;37.452;2022-09-20T10:51:45;2.13;;;0.90;;
53881;SDS011;39794;55.782;37.452;2022-09-20T10:54:30;2.42;;;1.05;;
53881;SDS011;39794;55.782;37.452;2022-09-20T10:57:12;1.80;;;1.05;;
53881;SDS011;39794;55.782;37.452;2022-09-20T10:59:55;1.77;;;0.80;;
53881;SDS011;39794;55.782;37.452;2022-09-20T11:02:43;2.08;;;1.15;;
53881;SDS011;39794;55.782;37.452;2022-09-20T11:05:32;1.20;;;1.00;;
53881;SDS011;39794;55.782;37.452;2022-09-20T11:08:13;3.95;;;1.08;;
53881;SDS011;39794;55.782;37.452;2022-09-20T11:10:51;2.70;;;1.20;;
53881;SDS011;39794;55.782;37.452;2022-09-20T11:13:36;2.15;;;1.20;;
53881;SDS011;39794;55.782;37.452;2022-09-20T11:16:15;2.13;;;1.90;;
53881;SDS011;39794;55.782;37.452;2022-09-20T11:18:50;2.80;;;1.50;;
53881;SDS011;39794;55.782;37.452;2022-09-20T11:21:25;2.10;;;1.33;;
53881;SDS011;39794;55.782;37.452;2022-09-20T11:24:09;2.20;;;1.10;;
53881;SDS011;39794;55.782;37.452;2022-09-20T11:26:47;3.97;;;1.38;;
53881;SDS011;39794;55.782;37.452;2022-09-20T11:29:19;1.90;;;1.30;;
53881;SDS011;39794;55.782;37.452;2022-09-20T11:32:00;1.63;;;1.02;;
53881;SDS011;39794;55.782;37.452;2022-09-20T11:34:34;2.65;;;1.13;;
53881;SDS011;39794;55.782;37.452;2022-09-20T11:37:15;1.02;;;0.90;;
53881;SDS011;39794;55.782;37.452;2022-09-20T11:39:50;5.40;;;1.42;;
53881;SDS011;39794;55.782;37.452;2022-09-20T11:42:26;3.17;;;1.10;;
53881;SDS011;39794;55.782;37.452;2022-09-20T11:45:01;5.18;;;1.25;;
53881;SDS011;39794;55.782;37.452;2022-09-20T11:47:37;5.38;;;1.13;;
53881;SDS011;39794;55.782;37.452;2022-09-20T11:50:45;2.17;;;1.30;;
53881;SDS011;39794;55.782;37.452;2022-09-20T11:53:37;4.78;;;1.92;;
53881;SDS011;39794;55.782;37.452;2022-09-20T11:56:14;2.45;;;1.30;;
53881;SDS011;39794;55.782;37.452;2022-09-20T11:58:50;4.93;;;1.42;;
53881;SDS011;39794;55.782;37.452;2022-09-20T12:01:24;3.55;;;1.40;;
53881;SDS011;39794;55.782;37.452;2022-09-20T12:03:58;2.83;;;1.75;;
53881;SDS011;39794;55.782;37.452;2022-09-20T12:07:14;3.75;;;1.38;;
53881;SDS011;39794;55.782;37.452;2022-09-20T12:09:50;2.30;;;1.50;;
53881;SDS011;39794;55.782;37.452;2022-09-20T12:12:30;1.77;;;1.27;;
53881;SDS011;39794;55.782;37.452;2022-09-20T12:15:18;4.13;;;2.20;;
53881;SDS011;39794;55.782;37.452;2022-09-20T12:21:16;2.75;;;1.45;;
53881;SDS011;39794;55.782;37.452;2022-09-20T12:26:52;3.28;;;1.52;;
53881;SDS011;39794;55.782;37.452;2022-09-20T12:32:47;1.80;;;1.67;;
53881;SDS011;39794;55.782;37.452;2022-09-20T12:38:29;1.50;;;1.23;;
53881;SDS011;39794;55.782;37.452;2022-09-20T12:41:05;8.35;;;1.50;;
53881;SDS011;39794;55.782;37.452;2022-09-20T12:43:36;5.70;;;1.70;;
53881;SDS011;39794;55.782;37.452;2022-09-20T12:46:20;1.45;;;1.25;;
53881;SDS011;39794;55.782;37.452;2022-09-20T12:52:07;9.15;;;1.90;;
53881;SDS011;39794;55.782;37.452;2022-09-20T12:55:06;3.20;;;2.00;;
53881;SDS011;39794;55.782;37.452;2022-09-20T12:57:37;6.60;;;1.80;;
53881;SDS011;39794;55.782;37.452;2022-09-20T13:00:07;4.05;;;1.85;;
53881;SDS011;39794;55.782;37.452;2022-09-20T13:02:58;3.38;;;2.30;;
53881;SDS011;39794;55.782;37.452;2022-09-20T13:05:34;4.05;;;2.22;;
53881;SDS011;39794;55.782;37.452;2022-09-20T13:08:08;5.80;;;2.00;;
53881;SDS011;39794;55.782;37.452;2022-09-20T13:10:47;3.05;;;1.80;;
53881;SDS011;39794;55.782;37.452;2022-09-20T13:13:24;2.65;;;2.17;;
53881;SDS011;39794;55.782;37.452;2022-09-20T13:16:00;6.90;;;3.83;;
53881;SDS011;39794;55.782;37.452;2022-09-20T13:18:32;3.67;;;3.00;;
53881;SDS011;39794;55.782;37.452;2022-09-20T13:21:03;4.32;;;2.08;;
53881;SDS011;39794;55.782;37.452;2022-09-20T13:23:41;4.85;;;2.72;;
53881;SDS011;39794;55.782;37.452;2022-09-20T13:26:13;4.22;;;3.22;;
53881;SDS011;39794;55.782;37.452;2022-09-20T13:28:44;4.20;;;2.20;;
53881;SDS011;39794;55.782;37.452;2022-09-20T13:31:15;2.53;;;2.30;;
53881;SDS011;39794;55.782;37.452;2022-09-20T13:34:19;3.90;;;2.75;;
53881;SDS011;39794;55.782;37.452;2022-09-20T13:36:52;6.40;;;3.17;;
53881;SDS011;39794;55.782;37.452;2022-09-20T13:39:22;3.17;;;2.25;;
53881;SDS011;39794;55.782;37.452;2022-09-20T13:41:59;3.05;;;1.92;;
53881;SDS011;39794;55.782;37.452;2022-09-20T13:44:32;4.25;;;2.72;;
53881;SDS011;39794;55.782;37.452;2022-09-20T13:47:06;4.65;;;2.63;;
53881;SDS011;39794;55.782;37.452;2022-09-20T13:49:49;4.93;;;2.40;;
53881;SDS011;39794;55.782;37.452;2022-09-20T13:52:28;4.13;;;2.78;;
53881;SDS011;39794;55.782;37.452;2022-09-20T13:54:58;4.00;;;2.60;;
53881;SDS011;39794;55.782;37.452;2022-09-20T13:57:28;3.38;;;2.42;;
53881;SDS011;39794;55.782;37.452;2022-09-20T14:00:01;3.33;;;2.40;;
53881;SDS011;39794;55.782;37.452;2022-09-20T14:02:37;6.18;;;2.50;;
53881;SDS011;39794;55.782;37.452;2022-09-20T14:05:06;3.33;;;2.30;;
53881;SDS011;39794;55.782;37.452;2022-09-20T14:07:44;5.15;;;2.47;;
53881;SDS011;39794;55.782;37.452;2022-09-20T14:13:15;6.43;;;3.25;;
53881;SDS011;39794;55.782;37.452;2022-09-20T14:15:45;5.32;;;2.80;;
53881;SDS011;39794;55.782;37.452;2022-09-20T14:18:16;6.25;;;3.28;;
53881;SDS011;39794;55.782;37.452;2022-09-20T14:20:45;5.50;;;3.78;;
53881;SDS011;39794;55.782;37.452;2022-09-20T14:23:20;6.00;;;3.80;;
53881;SDS011;39794;55.782;37.452;2022-09-20T14:26:06;5.93;;;2.97;;
53881;SDS011;39794;55.782;37.452;2022-09-20T14:28:45;6.75;;;2.95;;
53881;SDS011;39794;55.782;37.452;2022-09-20T14:31:14;3.72;;;2.30;;
53881;SDS011;39794;55.782;37.452;2022-09-20T14:33:44;3.25;;;1.98;;
53881;SDS011;39794;55.782;37.452;2022-09-20T14:36:21;4.13;;;2.20;;
53881;SDS011;39794;55.782;37.452;2022-09-20T14:38:52;4.60;;;2.20;;
53881;SDS011;39794;55.782;37.452;2022-09-20T14:41:26;3.80;;;1.90;;
53881;SDS011;39794;55.782;37.452;2022-09-20T14:43:56;8.52;;;1.77;;
53881;SDS011;39794;55.782;37.452;2022-09-20T14:46:31;3.22;;;1.90;;
53881;SDS011;39794;55.782;37.452;2022-09-20T14:55:21;4.22;;;2.50;;
53881;SDS011;39794;55.782;37.452;2022-09-20T14:58:04;3.25;;;2.22;;
53881;SDS011;39794;55.782;37.452;2022-09-20T15:00:45;6.53;;;2.42;;
53881;SDS011;39794;55.782;37.452;2022-09-20T15:03:16;6.38;;;2.60;;
53881;SDS011;39794;55.782;37.452;2022-09-20T15:05:51;5.05;;;2.10;;
53881;SDS011;39794;55.782;37.452;2022-09-20T15:08:19;3.05;;;2.15;;
53881;SDS011;39794;55.782;37.452;2022-09-20T15:10:50;3.95;;;2.35;;
53881;SDS011;39794;55.782;37.452;2022-09-20T15:13:19;4.30;;;2.60;;
53881;SDS011;39794;55.782;37.452;2022-09-20T15:15:48;6.40;;;2.60;;
53881;SDS011;39794;55.782;37.452;2022-09-20T15:18:18;4.53;;;2.90;;
53881;SDS011;39794;55.782;37.452;2022-09-20T15:20:49;4.68;;;2.78;;
53881;SDS011;39794;55.782;37.452;2022-09-20T15:23:17;3.55;;;2.53;;
53881;SDS011;39794;55.782;37.452;2022-09-20T15:25:48;3.42;;;2.28;;
53881;SDS011;39794;55.782;37.452;2022-09-20T15:28:19;4.45;;;2.78;;
53881;SDS011;39794;55.782;37.452;2022-09-20T15:30:48;4.45;;;2.65;;
53881;SDS011;39794;55.782;37.452;2022-09-20T15:33:19;6.32;;;2.95;;
53881;SDS011;39794;55.782;37.452;2022-09-20T15:35:48;4.47;;;2.50;;
53881;SDS011;39794;55.782;37.452;2022-09-20T15:38:17;3.75;;;2.50;;
53881;SDS011;39794;55.782;37.452;2022-09-20T15:40:46;4.68;;;2.42;;
53881;SDS011;39794;55.782;37.452;2022-09-20T15:43:16;5.85;;;2.75;;
53881;SDS011;39794;55.782;37.452;2022-09-20T15:45:49;4.00;;;2.92;;
53881;SDS011;39794;55.782;37.452;2022-09-20T15:48:20;9.88;;;2.83;;
53881;SDS011;39794;55.782;37.452;2022-09-20T15:50:57;8.57;;;2.80;;
53881;SDS011;39794;55.782;37.452;2022-09-20T15:53:28;4.50;;;2.70;;
53881;SDS011;39794;55.782;37.452;2022-09-20T15:56:00;5.15;;;2.90;;
53881;SDS011;39794;55.782;37.452;2022-09-20T15:58:30;6.78;;;2.90;;
53881;SDS011;39794;55.782;37.452;2022-09-20T16:01:04;6.38;;;3.35;;
53881;SDS011;39794;55.782;37.452;2022-09-20T16:03:34;5.78;;;3.03;;
53881;SDS011;39794;55.782;37.452;2022-09-20T16:06:05;8.27;;;3.13;;
53881;SDS011;39794;55.782;37.452;2022-09-20T16:08:34;5.20;;;3.22;;
53881;SDS011;39794;55.782;37.452;2022-09-20T16:11:04;5.72;;;2.90;;
53881;SDS011;39794;55.782;37.452;2022-09-20T16:13:34;4.75;;;3.10;;
53881;SDS011;39794;55.782;37.452;2022-09-20T16:16:08;4.75;;;2.80;;
53881;SDS011;39794;55.782;37.452;2022-09-20T16:18:38;5.85;;;3.63;;
53881;SDS011;39794;55.782;37.452;2022-09-20T16:21:24;5.32;;;3.13;;
53881;SDS011;39794;55.782;37.452;2022-09-20T16:23:53;5.57;;;3.70;;
53881;SDS011;39794;55.782;37.452;2022-09-20T16:26:26;8.73;;;3.97;;
53881;SDS011;39794;55.782;37.452;2022-09-20T16:28:59;5.78;;;4.00;;
53881;SDS011;39794;55.782;37.452;2022-09-20T16:31:35;9.00;;;3.53;;
53881;SDS011;39794;55.782;37.452;2022-09-20T16:34:07;6.45;;;4.10;;
53881;SDS011;39794;55.782;37.452;2022-09-20T16:36:40;6.57;;;3.70;;
53881;SDS011;39794;55.782;37.452;2022-09-20T16:39:14;7.47;;;3.95;;
53881;SDS011;39794;55.782;37.452;2022-09-20T16:41:48;7.10;;;4.00;;
53881;SDS011;39794;55.782;37.452;2022-09-20T16:44:34;7.50;;;4.38;;
53881;SDS011;39794;55.782;37.452;2022-09-20T16:47:11;8.27;;;4.95;;
53881;SDS011;39794;55.782;37.452;2022-09-20T16:49:48;5.68;;;3.92;;
53881;SDS011;39794;55.782;37.452;2022-09-20T16:52:20;5.07;;;3.63;;
53881;SDS011;39794;55.782;37.452;2022-09-20T16:54:48;5.90;;;3.30;;
53881;SDS011;39794;55.782;37.452;2022-09-20T16:57:20;7.07;;;4.70;;